createdAt,value
2019-03-03T00:00:50.099Z,6.37
2019-03-03T00:03:20.292Z,6.87
2019-03-03T00:05:51.017Z,6.70
2019-03-03T00:08:21.487Z,6.72
2019-03-03T00:10:51.375Z,6.87
2019-03-03T00:13:22.042Z,6.80
2019-03-03T00:15:54.013Z,6.62
2019-03-03T00:18:24.960Z,7.40
2019-03-03T00:21:13.215Z,6.92
2019-03-03T00:23:45.653Z,7.08
2019-03-03T00:26:16.050Z,7.35
2019-03-03T00:28:50.831Z,6.97
2019-03-03T00:31:24.130Z,7.00
2019-03-03T00:33:54.645Z,7.55
2019-03-03T00:36:28.647Z,7.55
2019-03-03T00:39:01.015Z,7.37
2019-03-03T00:41:34.482Z,7.60
2019-03-03T00:44:22.519Z,7.12
2019-03-03T00:47:00.927Z,6.92
2019-03-03T00:49:34.744Z,7.35
2019-03-03T00:52:14.208Z,6.45
2019-03-03T00:54:51.845Z,7.72
2019-03-03T00:57:29.143Z,6.95
2019-03-03T01:00:06.937Z,6.40
2019-03-03T01:02:39.426Z,7.03
2019-03-03T01:05:13.877Z,7.50
2019-03-03T01:07:55.887Z,7.45
2019-03-03T01:10:31.032Z,7.17
2019-03-03T01:13:06.019Z,7.03
2019-03-03T01:15:40.449Z,6.62
2019-03-03T01:18:12.811Z,6.80
2019-03-03T01:20:48.727Z,7.12
2019-03-03T01:23:20.167Z,6.72
2019-03-03T01:25:50.071Z,7.53
2019-03-03T01:28:19.931Z,6.77
2019-03-03T01:30:49.820Z,6.87
2019-03-03T01:33:20.276Z,6.50
2019-03-03T01:35:50.314Z,7.37
2019-03-03T01:38:20.208Z,6.62
2019-03-03T01:40:51.130Z,6.20
2019-03-03T01:43:21.610Z,6.65
2019-03-03T01:45:51.492Z,6.20
2019-03-03T01:48:21.469Z,6.50
2019-03-03T01:50:51.308Z,6.30
2019-03-03T01:53:22.192Z,6.33
2019-03-03T01:55:52.041Z,6.27
2019-03-03T01:58:21.913Z,5.83
2019-03-03T02:00:51.829Z,5.97
2019-03-03T02:03:21.798Z,6.30
2019-03-03T02:05:51.815Z,6.20
2019-03-03T02:08:21.595Z,6.22
2019-03-03T02:10:52.050Z,5.92
2019-03-03T02:13:22.083Z,6.03
2019-03-03T02:15:52.544Z,6.22
2019-03-03T02:18:22.326Z,6.03
2019-03-03T02:20:52.855Z,5.87
2019-03-03T02:23:23.225Z,6.15
2019-03-03T02:25:53.125Z,5.85
2019-03-03T02:28:23.006Z,5.93
2019-03-03T02:30:52.865Z,5.83
2019-03-03T02:33:22.833Z,5.70
2019-03-03T02:35:52.610Z,5.83
2019-03-03T02:38:23.160Z,6.15
2019-03-03T02:40:52.957Z,6.27
2019-03-03T02:43:22.797Z,5.80
2019-03-03T02:45:52.647Z,5.23
2019-03-03T02:48:23.093Z,5.25
2019-03-03T02:50:53.073Z,6.40
2019-03-03T02:53:23.443Z,6.22
2019-03-03T02:55:53.948Z,5.78
2019-03-03T02:58:23.708Z,6.23
2019-03-03T03:01:04.636Z,5.60
2019-03-03T03:03:35.069Z,5.55
2019-03-03T03:06:06.538Z,5.90
2019-03-03T03:08:39.536Z,5.67
2019-03-03T03:11:22.907Z,5.60
2019-03-03T03:14:10.361Z,5.13
2019-03-03T03:17:00.479Z,5.65
2019-03-03T03:19:32.994Z,5.37
2019-03-03T03:22:10.324Z,5.47
2019-03-03T03:24:56.509Z,5.43
2019-03-03T03:27:28.004Z,5.05
2019-03-03T03:30:09.476Z,6.17
2019-03-03T03:32:40.957Z,6.03
2019-03-03T03:35:12.460Z,4.97
2019-03-03T03:37:43.904Z,5.60
2019-03-03T03:40:31.273Z,5.70
2019-03-03T03:43:02.750Z,5.17
2019-03-03T03:45:34.174Z,6.23
2019-03-03T03:48:20.399Z,5.90
2019-03-03T03:50:52.005Z,6.77
2019-03-03T03:53:29.381Z,7.03
2019-03-03T03:56:06.831Z,7.43
2019-03-03T03:58:43.938Z,7.10
2019-03-03T04:01:15.415Z,7.40
2019-03-03T04:03:52.585Z,7.57
2019-03-03T04:06:29.817Z,7.60
2019-03-03T04:09:02.343Z,6.43
2019-03-03T04:11:50.078Z,6.50
2019-03-03T04:14:21.412Z,6.13
2019-03-03T04:16:55.353Z,6.20
2019-03-03T04:19:27.746Z,5.73
2019-03-03T04:22:04.899Z,5.83
2019-03-03T04:24:38.882Z,5.70
2019-03-03T04:27:19.439Z,5.70
2019-03-03T04:29:54.917Z,6.10
2019-03-03T04:32:29.146Z,5.50
2019-03-03T04:35:00.510Z,6.03
2019-03-03T04:37:48.203Z,5.40
2019-03-03T04:40:36.641Z,5.63
2019-03-03T04:43:08.149Z,5.73
2019-03-03T04:45:39.474Z,5.70
2019-03-03T04:48:25.879Z,5.70
2019-03-03T04:51:03.203Z,6.00
2019-03-03T04:53:50.690Z,6.50
2019-03-03T04:56:30.966Z,5.80
2019-03-03T04:59:09.533Z,6.30
2019-03-03T05:01:46.651Z,6.83
2019-03-03T05:04:32.990Z,6.17
2019-03-03T05:07:13.251Z,6.90
2019-03-03T05:13:07.063Z,7.30
2019-03-03T05:18:14.201Z,6.70
2019-03-03T05:20:48.401Z,6.43
2019-03-03T05:23:18.409Z,6.33
2019-03-03T05:25:48.175Z,6.50
2019-03-03T05:28:18.039Z,5.73
2019-03-03T05:30:49.013Z,5.23
2019-03-03T05:33:19.027Z,5.70
2019-03-03T05:35:49.028Z,5.40
2019-03-03T05:38:19.017Z,5.63
2019-03-03T05:40:50.120Z,5.33
2019-03-03T05:43:19.997Z,5.43
2019-03-03T05:45:50.029Z,5.20
2019-03-03T05:48:20.008Z,5.40
2019-03-03T05:50:50.785Z,5.00
2019-03-03T05:53:20.795Z,5.80
2019-03-03T05:55:50.558Z,6.00
2019-03-03T05:58:20.595Z,5.67
2019-03-03T06:00:51.446Z,5.77
2019-03-03T06:03:21.494Z,5.03
2019-03-03T06:05:51.400Z,5.20
2019-03-03T06:08:21.460Z,5.33
2019-03-03T06:10:51.272Z,5.03
2019-03-03T06:13:21.310Z,4.93
2019-03-03T06:15:51.143Z,4.78
2019-03-03T06:18:21.569Z,4.42
2019-03-03T06:20:51.351Z,5.17
2019-03-03T06:23:21.852Z,4.58
2019-03-03T06:25:52.307Z,4.47
2019-03-03T06:28:22.747Z,4.40
2019-03-03T06:30:53.120Z,4.37
2019-03-03T06:33:23.676Z,4.58
2019-03-03T06:35:54.048Z,4.20
2019-03-03T06:38:28.152Z,4.17
2019-03-03T06:40:58.614Z,4.50
2019-03-03T06:43:29.961Z,4.03
2019-03-03T06:46:00.470Z,4.03
2019-03-03T06:48:30.880Z,4.40
2019-03-03T06:51:01.420Z,4.12
2019-03-03T06:53:31.791Z,4.47
2019-03-03T06:56:03.362Z,3.85
2019-03-03T06:58:33.852Z,4.00
2019-03-03T07:01:04.426Z,4.42
2019-03-03T07:03:35.093Z,3.92
2019-03-03T07:06:05.728Z,3.90
2019-03-03T07:08:36.192Z,3.70
2019-03-03T07:11:06.798Z,3.83
2019-03-03T07:13:37.250Z,3.47
2019-03-03T07:16:07.742Z,4.08
2019-03-03T07:18:38.203Z,3.85
2019-03-03T07:21:08.688Z,3.20
2019-03-03T07:23:39.262Z,3.55
2019-03-03T07:26:09.766Z,3.15
2019-03-03T07:28:40.338Z,3.95
2019-03-03T07:31:10.825Z,3.58
2019-03-03T07:33:41.251Z,3.87
2019-03-03T07:36:11.710Z,3.52
2019-03-03T07:38:42.207Z,3.75
2019-03-03T07:41:12.751Z,3.58
2019-03-03T07:43:43.209Z,3.27
2019-03-03T07:46:13.828Z,3.52
2019-03-03T07:48:44.164Z,3.33
2019-03-03T07:51:14.646Z,3.70
2019-03-03T07:53:45.011Z,4.00
2019-03-03T07:56:15.314Z,3.30
2019-03-03T07:58:45.660Z,3.70
2019-03-03T08:01:15.808Z,3.90
2019-03-03T08:03:45.859Z,4.30
2019-03-03T08:06:16.008Z,4.33
2019-03-03T08:08:46.048Z,3.67
2019-03-03T08:11:16.226Z,4.33
2019-03-03T08:13:47.345Z,4.50
2019-03-03T08:16:17.710Z,4.07
2019-03-03T08:18:48.930Z,4.80
2019-03-03T08:21:19.205Z,5.23
2019-03-03T08:23:49.499Z,6.20
2019-03-03T08:26:19.802Z,7.10
2019-03-03T08:28:51.073Z,7.10
2019-03-03T08:31:21.246Z,6.87
2019-03-03T08:33:51.478Z,6.73
2019-03-03T08:36:21.636Z,6.20
2019-03-03T08:38:52.753Z,7.47
2019-03-03T08:41:22.957Z,8.07
2019-03-03T08:43:54.947Z,7.50
2019-03-03T08:46:42.732Z,8.20
2019-03-03T08:49:15.383Z,9.23
2019-03-03T08:51:52.989Z,9.93
2019-03-03T08:54:36.661Z,11.37
2019-03-03T08:57:24.771Z,11.50
2019-03-03T08:59:59.795Z,11.13
2019-03-03T09:02:32.152Z,14.40
2019-03-03T09:05:06.621Z,14.10
2019-03-03T09:07:47.495Z,23.60
2019-03-03T09:10:32.275Z,23.93
2019-03-03T09:13:04.190Z,27.37
2019-03-03T09:15:47.997Z,30.23
2019-03-03T09:18:19.835Z,25.10
2019-03-03T09:21:07.025Z,29.40
2019-03-03T09:23:53.490Z,33.07
2019-03-03T09:26:43.367Z,28.93
2019-03-03T09:29:27.238Z,37.97
2019-03-03T09:32:04.830Z,41.20
2019-03-03T09:34:36.684Z,38.23
2019-03-03T09:37:11.631Z,37.83
2019-03-03T09:39:43.831Z,38.48
2019-03-03T09:42:28.084Z,33.38
2019-03-03T09:45:00.237Z,41.53
2019-03-03T09:47:50.605Z,39.50
2019-03-03T09:50:22.605Z,40.12
2019-03-03T09:53:10.921Z,41.13
2019-03-03T09:55:45.768Z,40.95
2019-03-03T09:58:17.802Z,43.73
2019-03-03T10:01:05.963Z,45.28
2019-03-03T10:03:43.814Z,50.05
2019-03-03T10:06:18.721Z,54.47
2019-03-03T10:09:06.591Z,55.00
2019-03-03T10:11:39.609Z,49.53
2019-03-03T10:14:18.371Z,46.35
2019-03-03T10:17:02.341Z,47.95
2019-03-03T10:19:37.080Z,49.85
2019-03-03T10:22:09.224Z,50.30
2019-03-03T10:24:47.521Z,48.20
2019-03-03T10:27:19.617Z,49.58
2019-03-03T10:29:55.791Z,49.55
2019-03-03T10:32:27.935Z,51.00
2019-03-03T10:35:16.612Z,49.07
2019-03-03T10:37:57.430Z,48.55
2019-03-03T10:40:35.108Z,50.33
2019-03-03T10:43:13.138Z,52.95
2019-03-03T10:45:51.194Z,65.97
2019-03-03T10:48:29.312Z,61.53
2019-03-03T10:51:01.284Z,60.05
2019-03-03T10:53:33.388Z,54.83
2019-03-03T10:56:05.583Z,54.88
2019-03-03T10:58:37.861Z,54.15
2019-03-03T11:01:22.180Z,54.90
2019-03-03T11:03:54.474Z,55.90
2019-03-03T11:06:42.574Z,52.60
2019-03-03T11:09:37.029Z,55.83
2019-03-03T11:12:08.995Z,54.98
2019-03-03T11:14:42.056Z,55.67
2019-03-03T11:17:29.397Z,58.65
2019-03-03T11:20:02.568Z,60.03
2019-03-03T11:22:47.988Z,55.25
2019-03-03T11:25:28.939Z,53.85
2019-03-03T11:28:00.911Z,53.58
2019-03-03T11:30:36.439Z,57.33
2019-03-03T11:33:10.842Z,56.25
2019-03-03T11:35:46.289Z,55.43
2019-03-03T11:38:20.028Z,53.10
2019-03-03T11:40:56.036Z,52.35
2019-03-03T11:43:28.381Z,54.65
2019-03-03T11:46:04.145Z,60.58
2019-03-03T11:48:52.090Z,50.70
2019-03-03T11:51:36.702Z,51.70
2019-03-03T11:54:12.445Z,47.50
2019-03-03T11:56:47.348Z,45.17
2019-03-03T11:59:20.356Z,35.35
2019-03-03T12:02:08.845Z,34.80
2019-03-03T12:04:47.051Z,38.92
2019-03-03T12:07:19.054Z,39.90
2019-03-03T12:10:07.340Z,47.67
2019-03-03T12:12:55.467Z,45.08
2019-03-03T12:15:28.577Z,41.02
2019-03-03T12:18:17.030Z,41.10
2019-03-03T12:20:52.861Z,39.35
2019-03-03T12:23:33.982Z,39.05
2019-03-03T12:26:11.907Z,38.15
2019-03-03T12:28:59.093Z,45.98
2019-03-03T12:31:40.958Z,43.90
2019-03-03T12:34:14.885Z,42.13
2019-03-03T12:36:54.211Z,40.78
2019-03-03T12:39:26.382Z,42.25
2019-03-03T12:41:58.398Z,39.70
2019-03-03T12:44:36.558Z,41.08
2019-03-03T12:47:17.694Z,42.17
2019-03-03T12:50:05.987Z,41.98
2019-03-03T12:52:38.041Z,42.62
2019-03-03T12:55:10.339Z,42.08
2019-03-03T12:57:51.061Z,41.00
2019-03-03T13:00:26.918Z,41.00
2019-03-03T13:03:16.968Z,41.53
2019-03-03T13:05:54.897Z,40.92
2019-03-03T13:08:26.947Z,43.58
2019-03-03T13:11:04.848Z,43.17
2019-03-03T13:13:39.915Z,43.48
2019-03-03T13:16:13.093Z,42.20
2019-03-03T13:18:48.151Z,41.63
2019-03-03T13:21:29.096Z,40.08
2019-03-03T13:24:01.111Z,39.25
2019-03-03T13:26:33.244Z,36.20
2019-03-03T13:29:09.415Z,39.75
2019-03-03T13:31:56.649Z,41.42
2019-03-03T13:34:31.622Z,44.65
2019-03-03T13:37:03.925Z,38.05
2019-03-03T13:39:35.988Z,35.17
2019-03-03T13:42:26.008Z,36.70
2019-03-03T13:44:56.390Z,36.10
2019-03-03T13:47:27.147Z,34.53
2019-03-03T13:49:57.511Z,34.13
2019-03-03T13:52:27.978Z,35.30
2019-03-03T13:54:58.444Z,33.50
2019-03-03T13:57:28.960Z,39.85
2019-03-03T14:00:00.455Z,40.23
2019-03-03T14:02:32.457Z,43.02
2019-03-03T14:05:02.858Z,43.42
2019-03-03T14:07:33.662Z,43.05
2019-03-03T14:10:05.737Z,41.83
2019-03-03T14:12:38.430Z,39.98
2019-03-03T14:15:14.866Z,41.35
2019-03-03T14:17:45.638Z,42.13
2019-03-03T14:20:21.750Z,45.30
2019-03-03T14:22:53.929Z,39.73
2019-03-03T14:25:24.388Z,37.58
2019-03-03T14:27:55.076Z,39.63
2019-03-03T14:30:27.523Z,36.98
2019-03-03T14:32:58.014Z,37.15
2019-03-03T14:35:28.586Z,36.23
2019-03-03T14:37:59.423Z,37.93
2019-03-03T14:40:29.997Z,38.80
2019-03-03T14:43:00.578Z,37.33
2019-03-03T14:45:31.202Z,37.55
2019-03-03T14:48:03.555Z,35.90
2019-03-03T14:50:33.968Z,39.58
2019-03-03T14:53:04.720Z,36.38
2019-03-03T14:55:36.217Z,39.20
2019-03-03T14:58:06.838Z,40.33
2019-03-03T15:00:37.221Z,38.45
2019-03-03T15:03:08.750Z,38.92
2019-03-03T15:05:39.086Z,39.50
2019-03-03T15:08:09.690Z,38.25
2019-03-03T15:10:40.153Z,34.75
2019-03-03T15:13:10.597Z,33.83
2019-03-03T15:15:41.476Z,34.78
2019-03-03T15:18:12.091Z,36.58
2019-03-03T15:20:42.510Z,38.13
2019-03-03T15:23:13.095Z,37.70
2019-03-03T15:25:43.568Z,37.75
2019-03-03T15:28:15.104Z,34.92
2019-03-03T15:30:45.741Z,35.25
2019-03-03T15:33:16.252Z,34.30
2019-03-03T15:35:46.739Z,32.90
2019-03-03T15:38:17.648Z,32.50
2019-03-03T15:40:48.975Z,33.10
2019-03-03T15:43:20.451Z,35.45
2019-03-03T15:45:50.975Z,34.27
2019-03-03T15:48:21.501Z,37.08
2019-03-03T15:50:51.843Z,35.92
2019-03-03T15:53:22.544Z,34.15
2019-03-03T15:55:54.116Z,34.40
2019-03-03T15:58:24.899Z,35.98
2019-03-03T16:00:57.395Z,37.30
2019-03-03T16:03:29.585Z,34.18
2019-03-03T16:06:00.782Z,38.95
2019-03-03T16:08:32.413Z,38.20
2019-03-03T16:11:03.447Z,38.58
2019-03-03T16:13:34.443Z,37.70
2019-03-03T16:16:05.459Z,36.98
2019-03-03T16:18:36.502Z,36.70
2019-03-03T16:21:08.851Z,39.50
2019-03-03T16:23:40.099Z,38.20
2019-03-03T16:26:13.895Z,39.90
2019-03-03T16:28:45.429Z,39.95
2019-03-03T16:31:16.214Z,38.02
2019-03-03T16:33:48.543Z,37.15
2019-03-03T16:36:19.644Z,38.80
2019-03-03T16:38:50.757Z,36.90
2019-03-03T16:41:21.640Z,36.33
2019-03-03T16:43:54.046Z,38.17
2019-03-03T16:46:25.282Z,36.40
2019-03-03T16:48:57.377Z,37.60
2019-03-03T16:51:28.340Z,38.53
2019-03-03T16:53:59.333Z,41.63
2019-03-03T16:56:37.492Z,38.10
2019-03-03T16:59:09.504Z,37.20
2019-03-03T17:01:40.429Z,36.68
2019-03-03T17:04:12.589Z,41.45
2019-03-03T17:06:43.435Z,38.60
2019-03-03T17:09:14.465Z,40.35
2019-03-03T17:11:46.708Z,39.53
2019-03-03T17:14:17.677Z,39.65
2019-03-03T17:16:48.452Z,40.20
2019-03-03T17:19:19.471Z,40.12
2019-03-03T17:21:50.367Z,40.75
2019-03-03T17:24:21.420Z,42.83
2019-03-03T17:26:52.333Z,40.90
2019-03-03T17:29:23.518Z,39.35
2019-03-03T17:31:54.360Z,40.20
2019-03-03T17:34:25.322Z,43.28
2019-03-03T17:36:56.180Z,40.98
2019-03-03T17:39:27.203Z,40.52
2019-03-03T17:41:58.160Z,42.88
2019-03-03T17:44:29.146Z,42.25
2019-03-03T17:46:59.990Z,44.15
2019-03-03T17:49:32.166Z,41.28
2019-03-03T17:52:03.454Z,41.60
2019-03-03T17:54:36.498Z,39.10
2019-03-03T17:57:07.336Z,41.92
2019-03-03T17:59:39.552Z,42.45
2019-03-03T18:02:10.372Z,41.95
2019-03-03T18:04:41.347Z,40.28
2019-03-03T18:07:12.231Z,42.03
2019-03-03T18:09:43.204Z,41.92
2019-03-03T18:12:14.089Z,40.08
2019-03-03T18:14:45.968Z,41.58
2019-03-03T18:17:16.870Z,43.13
2019-03-03T18:19:48.123Z,42.35
2019-03-03T18:22:18.847Z,42.08
2019-03-03T18:24:49.987Z,43.78
2019-03-03T18:27:20.763Z,42.75
2019-03-03T18:29:51.938Z,44.08
2019-03-03T18:32:22.759Z,43.63
2019-03-03T18:34:53.787Z,43.58
2019-03-03T18:37:24.663Z,38.80
2019-03-03T18:39:56.298Z,44.50
2019-03-03T18:42:28.577Z,42.95
2019-03-03T18:45:01.424Z,41.08
2019-03-03T18:47:32.107Z,42.53
2019-03-03T18:50:02.931Z,42.90
2019-03-03T18:52:33.700Z,44.15
2019-03-03T18:55:06.187Z,43.10
2019-03-03T18:57:36.995Z,40.28
2019-03-03T19:00:28.056Z,38.80
2019-03-03T19:02:58.893Z,39.83
2019-03-03T19:05:30.136Z,38.30
2019-03-03T19:08:01.873Z,37.25
2019-03-03T19:10:38.031Z,37.25
2019-03-03T19:13:11.840Z,38.95
2019-03-03T19:15:43.315Z,39.42
2019-03-03T19:18:14.341Z,40.20
2019-03-03T19:20:46.205Z,37.88
2019-03-03T19:23:16.762Z,37.40
2019-03-03T19:25:47.406Z,35.95
2019-03-03T19:28:18.200Z,34.25
2019-03-03T19:30:49.288Z,31.10
2019-03-03T19:33:23.553Z,27.05
2019-03-03T19:35:54.645Z,26.52
2019-03-03T19:38:26.914Z,25.68
2019-03-03T19:40:57.914Z,23.35
2019-03-03T19:43:28.730Z,20.55
2019-03-03T19:46:05.559Z,18.15
2019-03-03T19:48:36.236Z,16.40
2019-03-03T19:51:07.227Z,16.00
2019-03-03T19:53:38.114Z,19.52
2019-03-03T19:56:09.151Z,19.45
2019-03-03T19:58:41.904Z,13.13
2019-03-03T20:01:13.064Z,10.28
2019-03-03T20:03:43.986Z,9.10
2019-03-03T20:06:14.966Z,7.80
2019-03-03T20:08:45.795Z,7.83
2019-03-03T20:11:16.838Z,6.75
2019-03-03T20:13:51.024Z,7.00
2019-03-03T20:16:22.075Z,6.00
2019-03-03T20:18:53.443Z,6.33
2019-03-03T20:21:24.931Z,6.90
2019-03-03T20:23:55.514Z,6.40
2019-03-03T20:26:26.112Z,6.87
2019-03-03T20:28:59.754Z,6.37
2019-03-03T20:31:30.958Z,6.35
2019-03-03T20:34:01.478Z,6.05
2019-03-03T20:36:32.339Z,9.43
2019-03-03T20:39:02.907Z,5.92
2019-03-03T20:41:34.946Z,5.58
2019-03-03T20:44:05.432Z,5.00
2019-03-03T20:46:36.039Z,5.75
2019-03-03T20:49:07.739Z,5.12
2019-03-03T20:51:38.448Z,4.87
2019-03-03T20:54:09.475Z,5.62
2019-03-03T20:56:43.808Z,5.05
2019-03-03T20:59:16.170Z,5.28
2019-03-03T21:01:48.913Z,4.55
2019-03-03T21:04:19.439Z,4.95
2019-03-03T21:06:50.023Z,5.25
2019-03-03T21:09:20.402Z,4.40
2019-03-03T21:11:53.774Z,4.35
2019-03-03T21:14:25.232Z,4.10
2019-03-03T21:16:55.890Z,4.47
2019-03-03T21:19:28.061Z,4.40
2019-03-03T21:22:00.017Z,4.85
2019-03-03T21:24:31.355Z,4.10
2019-03-03T21:27:04.135Z,4.00
2019-03-03T21:29:37.543Z,5.10
2019-03-03T21:32:09.501Z,4.10
2019-03-03T21:34:40.152Z,4.30
2019-03-03T21:37:13.838Z,4.33
2019-03-03T21:39:45.472Z,3.72
2019-03-03T21:42:16.539Z,3.92
2019-03-03T21:44:47.016Z,4.53
2019-03-03T21:47:18.935Z,4.28
2019-03-03T21:49:50.979Z,4.25
2019-03-03T21:52:22.009Z,4.17
2019-03-03T21:54:52.509Z,4.60
2019-03-03T21:57:23.058Z,4.10
2019-03-03T21:59:54.397Z,4.58
2019-03-03T22:02:24.928Z,4.58
2019-03-03T22:04:55.489Z,4.10
2019-03-03T22:07:25.950Z,4.45
2019-03-03T22:09:57.299Z,4.25
2019-03-03T22:12:27.757Z,3.92
2019-03-03T22:14:58.096Z,4.60
2019-03-03T22:17:28.537Z,3.87
2019-03-03T22:19:59.916Z,4.70
2019-03-03T22:22:31.308Z,4.45
2019-03-03T22:25:01.666Z,3.52
2019-03-03T22:27:32.123Z,3.80
2019-03-03T22:30:04.578Z,3.83
2019-03-03T22:32:35.278Z,4.22
2019-03-03T22:35:07.258Z,3.55
2019-03-03T22:37:37.764Z,4.37
2019-03-03T22:40:17.102Z,3.62
2019-03-03T22:42:47.535Z,3.98
2019-03-03T22:45:18.283Z,3.98
2019-03-03T22:47:48.895Z,4.10
2019-03-03T22:50:21.278Z,3.45
2019-03-03T22:52:51.885Z,3.50
2019-03-03T22:55:22.412Z,3.30
2019-03-03T22:57:52.842Z,2.80
2019-03-03T23:00:52.992Z,3.00
2019-03-03T23:03:45.657Z,6.60
2019-03-03T23:06:35.653Z,7.80
2019-03-03T23:09:14.147Z,3.22
2019-03-03T23:11:53.327Z,2.87
2019-03-03T23:14:26.888Z,2.83
2019-03-03T23:17:09.388Z,2.52
2019-03-03T23:19:52.785Z,2.58
2019-03-03T23:22:44.145Z,2.42
2019-03-03T23:25:42.905Z,2.35
2019-03-03T23:28:13.341Z,2.25
2019-03-03T23:30:45.009Z,2.33
2019-03-03T23:33:15.446Z,2.52
2019-03-03T23:35:45.906Z,2.83
2019-03-03T23:38:16.242Z,2.47
2019-03-03T23:40:47.711Z,2.52
2019-03-03T23:43:18.156Z,2.30
2019-03-03T23:45:48.622Z,2.50
2019-03-03T23:48:18.938Z,2.45
2019-03-03T23:50:50.453Z,2.22
2019-03-03T23:53:20.793Z,2.58
2019-03-03T23:55:50.649Z,3.08
2019-03-03T23:58:20.988Z,3.02
